Time;durP1;ratioP1;P1;durP2;ratioP2;P2;SDS_P1;SDS_P2;PMS_P1;PMS_P2;Temp;Humidity;BMP_temperature;BMP_pressure;BME280_temperature;BME280_humidity;BME280_pressure;Samples;Min_cycle;Max_cycle;Signal;HPM_P1;HPM_P2
2023/06/16 00:01:04;;;;;;;2.67;1.35;;;;;;;15.81;100.00;90487.22;5053750;28;20090;-67
2023/06/16 00:03:33;;;;;;;4.78;1.75;;;;;;;15.74;100.00;90478.25;5053857;28;20033;-67
2023/06/16 00:06:03;;;;;;;3.35;1.83;;;;;;;15.75;100.00;90479.78;5053604;28;20025;-67
2023/06/16 00:08:30;;;;;;;1.85;1.75;;;;;;;15.83;100.00;90478.84;5053699;28;20175;-66
2023/06/16 00:10:56;;;;;;;1.15;1.05;;;;;;;15.79;100.00;90480.69;5053593;28;20188;-67
2023/06/16 00:13:22;;;;;;;1.50;1.40;;;;;;;15.76;100.00;90486.72;5053511;28;20115;-66
2023/06/16 00:15:47;;;;;;;2.72;1.60;;;;;;;15.80;100.00;90487.59;5053303;28;20509;-66
2023/06/16 00:18:12;;;;;;;2.78;2.58;;;;;;;15.87;100.00;90483.13;5053592;28;20032;-67
2023/06/16 00:20:38;;;;;;;2.20;1.92;;;;;;;15.85;100.00;90480.03;5053336;28;20033;-66
2023/06/16 00:23:08;;;;;;;1.70;1.52;;;;;;;15.80;100.00;90477.63;5053477;28;20029;-66
2023/06/16 00:25:34;;;;;;;3.40;1.08;;;;;;;15.79;100.00;90469.94;5053363;28;20048;-67
2023/06/16 00:27:59;;;;;;;1.58;1.48;;;;;;;15.74;100.00;90468.28;5051822;28;20040;-67
2023/06/16 00:30:24;;;;;;;1.33;1.27;;;;;;;15.77;100.00;90477.53;5052862;28;20116;-67
2023/06/16 00:32:50;;;;;;;1.73;1.63;;;;;;;15.72;100.00;90473.22;5053008;28;20033;-67
2023/06/16 00:35:15;;;;;;;1.10;1.10;;;;;;;15.75;100.00;90471.75;5053166;28;20487;-67
2023/06/16 00:37:41;;;;;;;1.42;1.35;;;;;;;15.71;100.00;90468.22;5052824;28;20060;-67
2023/06/16 00:40:08;;;;;;;1.50;1.40;;;;;;;15.68;100.00;90475.06;5052494;28;20108;-67
2023/06/16 00:42:33;;;;;;;1.00;1.00;;;;;;;15.58;100.00;90454.91;5052965;28;20064;-67
2023/06/16 00:44:59;;;;;;;2.13;2.03;;;;;;;15.60;100.00;90459.16;5052549;28;20056;-67
2023/06/16 00:47:25;;;;;;;0.88;0.80;;;;;;;15.65;100.00;90462.38;5052618;28;20031;-66
2023/06/16 00:49:51;;;;;;;2.08;1.00;;;;;;;15.69;100.00;90462.44;5051355;28;20029;-66
2023/06/16 00:52:17;;;;;;;1.58;1.35;;;;;;;15.74;100.00;90467.53;5052817;28;20119;-66
2023/06/16 00:54:43;;;;;;;1.02;1.02;;;;;;;15.78;100.00;90452.28;5052835;28;20402;-66
2023/06/16 00:57:09;;;;;;;2.88;1.25;;;;;;;15.74;100.00;90460.25;5052459;28;20078;-67
2023/06/16 00:59:35;;;;;;;1.75;1.60;;;;;;;15.72;100.00;90448.31;5052414;28;20029;-67
2023/06/16 01:02:01;;;;;;;2.22;2.10;;;;;;;15.82;100.00;90450.47;5052422;28;20029;-66
2023/06/16 01:04:27;;;;;;;1.95;1.83;;;;;;;15.85;100.00;90452.44;5052572;28;20021;-66
2023/06/16 01:07:05;;;;;;;4.25;2.33;;;;;;;15.92;100.00;90452.56;5051099;28;20061;-66
2023/06/16 01:09:57;;;;;;;2.38;1.98;;;;;;;15.90;100.00;90448.69;5052543;28;20025;-66
2023/06/16 01:12:47;;;;;;;2.03;1.83;;;;;;;15.85;100.00;90447.84;5203014;22;20191;-67
2023/06/16 01:15:18;;;;;;;1.30;1.23;;;;;;;15.83;100.00;90444.75;5051851;28;20095;-69
2023/06/16 01:17:46;;;;;;;1.40;1.30;;;;;;;15.82;100.00;90437.81;5052096;28;20112;-68
2023/06/16 01:20:42;;;;;;;4.47;1.85;;;;;;;15.86;100.00;90435.22;5052197;28;20033;-67
2023/06/16 01:23:25;;;;;;;1.75;1.65;;;;;;;15.88;100.00;90435.63;5052230;28;20048;-67
2023/06/16 01:25:55;;;;;;;1.50;1.48;;;;;;;15.88;100.00;90430.28;5051646;28;20371;-68
2023/06/16 01:28:23;;;;;;;1.90;1.80;;;;;;;15.82;100.00;90426.31;5052119;28;20032;-68
2023/06/16 01:30:50;;;;;;;4.10;2.20;;;;;;;15.86;100.00;90433.31;5051714;28;20062;-69
2023/06/16 01:33:20;;;;;;;4.30;2.35;;;;;;;15.86;100.00;90438.66;5051707;28;20036;-67
2023/06/16 01:35:47;;;;;;;2.53;2.42;;;;;;;15.95;100.00;90432.34;5052019;28;20048;-68
2023/06/16 01:38:13;;;;;;;2.47;2.28;;;;;;;16.00;100.00;90432.81;5050151;28;20020;-68
2023/06/16 01:40:40;;;;;;;1.50;1.45;;;;;;;15.98;100.00;90427.03;5051982;28;20529;-68
2023/06/16 01:43:07;;;;;;;1.77;1.45;;;;;;;15.94;100.00;90434.25;5051607;28;20478;-68
2023/06/16 01:45:32;;;;;;;2.13;2.03;;;;;;;15.87;100.00;90421.44;5051758;28;20537;-67
2023/06/16 01:47:59;;;;;;;3.38;2.60;;;;;;;15.82;100.00;90420.97;5051614;28;20021;-68
2023/06/16 01:50:25;;;;;;;3.58;2.92;;;;;;;15.79;100.00;90427.03;5051863;28;20025;-68
2023/06/16 01:52:50;;;;;;;1.73;1.63;;;;;;;15.82;100.00;90431.69;5051493;28;20028;-68
2023/06/16 01:55:15;;;;;;;1.80;1.70;;;;;;;15.67;100.00;90425.25;5051475;28;20402;-68
2023/06/16 01:57:41;;;;;;;4.43;2.65;;;;;;;15.64;100.00;90436.69;5051381;28;20075;-68
2023/06/16 02:00:14;;;;;;;1.70;1.60;;;;;;;15.60;100.00;90435.81;5051849;28;20091;-68
2023/06/16 02:02:42;;;;;;;2.70;1.95;;;;;;;15.59;100.00;90431.56;5051555;28;20478;-67
2023/06/16 02:05:11;;;;;;;1.88;1.77;;;;;;;15.56;100.00;90424.22;5051449;28;20040;-67
2023/06/16 02:07:41;;;;;;;2.45;2.05;;;;;;;15.54;100.00;90431.81;5051683;28;20127;-68
2023/06/16 02:10:08;;;;;;;0.88;0.88;;;;;;;15.48;100.00;90422.50;5051670;28;20116;-68
2023/06/16 02:12:34;;;;;;;2.45;2.28;;;;;;;15.58;100.00;90432.69;5051607;28;20032;-68
2023/06/16 02:15:00;;;;;;;1.08;1.08;;;;;;;15.58;100.00;90425.41;5051485;28;20037;-68
2023/06/16 02:17:26;;;;;;;1.50;1.40;;;;;;;15.62;100.00;90425.53;5051235;28;20032;-68
2023/06/16 02:19:54;;;;;;;1.55;1.45;;;;;;;15.67;100.00;90427.16;5051480;28;20108;-67
2023/06/16 02:22:19;;;;;;;1.55;1.45;;;;;;;15.69;100.00;90431.03;5051195;28;20017;-68
2023/06/16 02:24:46;;;;;;;1.95;1.85;;;;;;;15.66;100.00;90428.28;5051278;28;20445;-69
2023/06/16 02:27:13;;;;;;;2.00;1.90;;;;;;;15.57;100.00;90431.13;5051185;28;20029;-69
2023/06/16 02:29:39;;;;;;;1.77;1.65;;;;;;;15.50;100.00;90430.97;5051393;28;20471;-68
2023/06/16 02:32:05;;;;;;;1.08;1.08;;;;;;;15.55;100.00;90438.75;5051060;28;20021;-68
2023/06/16 02:34:30;;;;;;;1.55;1.45;;;;;;;15.52;100.00;90431.41;5051399;28;20114;-68
2023/06/16 02:36:56;;;;;;;1.63;1.52;;;;;;;15.54;100.00;90429.16;5053010;28;20040;-68
2023/06/16 02:39:22;;;;;;;1.55;1.50;;;;;;;15.63;100.00;90429.78;5055153;28;20021;-68
2023/06/16 02:41:48;;;;;;;2.20;2.10;;;;;;;15.69;100.00;90436.41;5054821;28;20028;-68
2023/06/16 02:44:13;;;;;;;1.85;1.75;;;;;;;15.79;100.00;90425.13;5054911;28;20037;-68
2023/06/16 02:46:39;;;;;;;1.27;1.27;;;;;;;15.85;100.00;90429.06;5054765;28;20032;-68
2023/06/16 02:49:04;;;;;;;1.83;1.73;;;;;;;15.82;100.00;90423.63;5054709;28;20464;-68
2023/06/16 02:51:30;;;;;;;3.00;2.45;;;;;;;15.80;100.00;90417.84;5054895;28;20040;-68
2023/06/16 02:53:55;;;;;;;3.85;2.65;;;;;;;15.76;100.00;90407.03;5054680;28;20065;-68
2023/06/16 02:56:21;;;;;;;2.20;1.90;;;;;;;15.86;100.00;90408.38;5054986;28;20078;-68
2023/06/16 02:58:47;;;;;;;2.00;1.90;;;;;;;15.90;100.00;90416.50;5069813;28;20531;-68
2023/06/16 03:01:14;;;;;;;3.40;1.73;;;;;;;15.95;100.00;90430.44;5054514;28;20025;-68
2023/06/16 03:03:39;;;;;;;3.38;2.65;;;;;;;15.83;100.00;90417.94;5054735;28;20037;-68
2023/06/16 03:06:05;;;;;;;4.25;3.60;;;;;;;15.84;100.00;90419.47;5054430;28;20529;-69
2023/06/16 03:08:30;;;;;;;2.17;2.08;;;;;;;15.94;100.00;90423.50;5054564;28;20028;-68
2023/06/16 03:10:55;;;;;;;3.50;2.50;;;;;;;15.85;100.00;90422.94;5052997;28;20028;-68
2023/06/16 03:13:21;;;;;;;3.63;2.63;;;;;;;15.78;100.00;90423.56;5054268;28;20079;-69
2023/06/16 03:15:46;;;;;;;3.00;2.75;;;;;;;15.78;100.00;90425.44;5054378;28;20059;-68
2023/06/16 03:18:12;;;;;;;2.38;2.05;;;;;;;15.79;100.00;90424.34;5054137;28;20024;-68
2023/06/16 03:20:40;;;;;;;3.05;2.80;;;;;;;15.75;100.00;90426.94;5054075;28;20039;-67
2023/06/16 03:23:05;;;;;;;3.53;2.72;;;;;;;15.77;100.00;90432.72;5054616;28;20065;-67
2023/06/16 03:25:31;;;;;;;2.92;2.50;;;;;;;15.65;100.00;90429.41;5054365;28;20114;-67
2023/06/16 03:27:57;;;;;;;3.50;2.67;;;;;;;15.59;100.00;90428.91;5053964;28;20036;-67
2023/06/16 03:30:23;;;;;;;2.80;2.42;;;;;;;15.58;100.00;90424.63;5054002;28;20025;-67
2023/06/16 03:32:49;;;;;;;4.07;2.08;;;;;;;15.57;100.00;90431.13;5053932;28;20025;-67
2023/06/16 03:35:15;;;;;;;3.63;3.33;;;;;;;15.55;100.00;90436.84;5054156;28;20043;-67
2023/06/16 03:37:40;;;;;;;2.45;2.25;;;;;;;15.58;100.00;90428.09;5053750;28;20100;-68
2023/06/16 03:40:07;;;;;;;4.90;4.32;;;;;;;15.65;100.00;90424.81;5054011;28;20025;-68
2023/06/16 03:42:33;;;;;;;3.40;3.10;;;;;;;15.66;100.00;90433.66;5053642;28;20445;-69
2023/06/16 03:44:59;;;;;;;3.05;2.85;;;;;;;15.62;100.00;90427.41;5053795;28;20048;-68
2023/06/16 03:47:24;;;;;;;2.47;2.33;;;;;;;15.67;100.00;90424.47;5053309;28;20352;-67
2023/06/16 03:49:50;;;;;;;1.52;1.52;;;;;;;15.59;100.00;90431.56;5053687;28;20017;-67
2023/06/16 03:52:15;;;;;;;8.82;3.83;;;;;;;15.60;100.00;90427.00;5053746;28;20059;-67
2023/06/16 03:54:41;;;;;;;1.33;1.23;;;;;;;15.58;100.00;90427.31;5045501;28;20478;-70
2023/06/16 03:57:06;;;;;;;2.72;2.53;;;;;;;15.58;100.00;90422.72;5042611;28;20494;-69
2023/06/16 03:59:32;;;;;;;4.00;3.55;;;;;;;15.48;100.00;90422.50;5042441;28;20078;-69
2023/06/16 04:01:58;;;;;;;3.53;3.33;;;;;;;15.42;100.00;90423.91;5038542;28;20059;-69
2023/06/16 04:04:27;;;;;;;3.05;2.33;;;;;;;15.44;100.00;90421.63;5033360;28;20057;-69
2023/06/16 04:06:52;;;;;;;3.22;2.83;;;;;;;15.49;100.00;90424.84;5033413;28;20471;-69
2023/06/16 04:09:17;;;;;;;3.15;2.80;;;;;;;15.52;100.00;90420.69;5048674;28;20024;-69
2023/06/16 04:11:43;;;;;;;1.30;1.27;;;;;;;15.54;100.00;90424.56;5033106;28;20112;-69
2023/06/16 04:14:09;;;;;;;4.47;2.72;;;;;;;15.47;100.00;90415.59;5033303;28;20084;-69
2023/06/16 04:16:35;;;;;;;3.58;2.30;;;;;;;15.51;100.00;90422.59;5033350;28;20097;-69
2023/06/16 04:19:02;;;;;;;2.70;2.15;;;;;;;15.40;100.00;90415.44;5033104;28;20123;-69
2023/06/16 04:21:27;;;;;;;4.68;2.15;;;;;;;15.39;100.00;90406.63;5048395;28;20033;-69
2023/06/16 04:23:53;;;;;;;3.85;3.05;;;;;;;15.50;100.00;90410.31;5033088;28;20458;-69
2023/06/16 04:26:22;;;;;;;2.97;2.25;;;;;;;15.62;100.00;90412.13;5033015;28;20032;-69
2023/06/16 04:28:55;;;;;;;3.47;2.67;;;;;;;15.58;100.00;90403.97;5032990;28;20051;-69
2023/06/16 04:31:21;;;;;;;3.08;2.83;;;;;;;15.57;100.00;90404.31;5032756;28;20025;-69
2023/06/16 04:33:47;;;;;;;4.15;3.65;;;;;;;15.74;100.00;90408.53;5033343;28;20434;-69
2023/06/16 04:36:14;;;;;;;2.42;2.25;;;;;;;15.62;100.00;90406.78;5032438;28;20055;-69
2023/06/16 04:38:39;;;;;;;3.15;2.85;;;;;;;15.55;100.00;90407.34;5032858;28;20030;-69
2023/06/16 04:41:05;;;;;;;3.40;3.10;;;;;;;15.69;100.00;90406.91;5032418;28;20414;-68
2023/06/16 04:43:30;;;;;;;4.80;3.47;;;;;;;15.69;100.00;90414.94;5033019;28;20057;-68
2023/06/16 04:45:57;;;;;;;1.83;1.73;;;;;;;15.47;100.00;90404.88;5032594;28;20075;-68
2023/06/16 04:48:23;;;;;;;4.45;4.15;;;;;;;15.35;100.00;90405.78;5032853;28;20083;-68
2023/06/16 04:50:48;;;;;;;3.15;2.67;;;;;;;15.46;100.00;90403.31;5032419;28;20493;-68
2023/06/16 04:53:13;;;;;;;2.65;2.45;;;;;;;15.52;100.00;90405.38;5032387;28;20030;-68
2023/06/16 04:55:39;;;;;;;2.80;2.60;;;;;;;15.50;100.00;90407.63;5032632;28;20053;-68
2023/06/16 04:58:04;;;;;;;3.95;3.65;;;;;;;15.66;100.00;90415.66;5037281;28;20528;-69
2023/06/16 05:00:30;;;;;;;2.90;2.67;;;;;;;15.54;100.00;90411.16;5051300;28;20025;-69
2023/06/16 05:02:56;;;;;;;1.67;1.58;;;;;;;15.38;100.00;90407.75;5052358;28;20025;-68
2023/06/16 05:05:22;;;;;;;4.15;1.55;;;;;;;15.27;100.00;90402.13;5051779;28;20025;-68
2023/06/16 05:07:47;;;;;;;4.57;1.98;;;;;;;15.41;100.00;90411.63;5040492;28;20030;-69
2023/06/16 05:10:13;;;;;;;6.57;4.35;;;;;;;15.51;100.00;90411.09;5042336;28;20020;-69
2023/06/16 05:12:38;;;;;;;2.42;2.22;;;;;;;15.42;100.00;90402.44;5034593;28;20069;-69
2023/06/16 05:15:04;;;;;;;2.35;2.20;;;;;;;15.34;100.00;90408.81;5031896;28;20550;-69
2023/06/16 05:17:30;;;;;;;5.65;3.67;;;;;;;15.28;100.00;90402.91;5031093;28;20105;-69
2023/06/16 05:19:55;;;;;;;3.05;2.28;;;;;;;15.32;100.00;90397.66;5031911;28;20034;-69
2023/06/16 05:22:23;;;;;;;2.35;2.15;;;;;;;15.40;100.00;90402.81;5031941;28;20029;-69
2023/06/16 05:24:57;;;;;;;3.05;2.15;;;;;;;15.44;100.00;90406.34;5031980;28;20490;-69
2023/06/16 05:27:24;;;;;;;3.50;2.05;;;;;;;15.36;100.00;90395.81;5031995;28;20459;-69
2023/06/16 05:29:53;;;;;;;2.10;2.00;;;;;;;15.38;100.00;90409.66;5032016;28;20049;-69
2023/06/16 05:32:21;;;;;;;1.73;1.55;;;;;;;15.43;100.00;90401.31;5031632;28;20556;-69
2023/06/16 05:34:50;;;;;;;2.08;1.98;;;;;;;15.64;100.00;90417.13;5031769;28;20479;-68
2023/06/16 05:37:15;;;;;;;1.83;1.73;;;;;;;15.43;100.00;90415.50;5031899;28;20047;-68
2023/06/16 05:39:47;;;;;;;2.28;2.17;;;;;;;15.42;100.00;90413.19;5032048;28;20033;-68
2023/06/16 05:42:14;;;;;;;2.83;2.63;;;;;;;15.47;100.00;90420.97;5031767;28;20028;-69
2023/06/16 05:44:43;;;;;;;1.58;1.48;;;;;;;15.59;100.00;90420.84;5032452;28;20040;-70
2023/06/16 05:47:09;;;;;;;4.63;2.75;;;;;;;15.29;100.00;90409.81;5032965;28;20387;-70
2023/06/16 05:49:34;;;;;;;1.00;1.00;;;;;;;15.17;100.00;90415.31;5030400;28;20032;-70
2023/06/16 05:52:02;;;;;;;2.45;2.17;;;;;;;15.25;100.00;90414.34;5031622;28;20026;-69
2023/06/16 05:54:31;;;;;;;4.43;3.05;;;;;;;15.19;100.00;90416.53;5031976;28;20081;-71
2023/06/16 05:56:57;;;;;;;2.58;2.38;;;;;;;15.28;100.00;90405.59;5031471;28;20080;-71
2023/06/16 05:59:23;;;;;;;1.25;1.25;;;;;;;15.48;100.00;90407.22;5031828;28;20044;-69
2023/06/16 06:01:51;;;;;;;3.38;2.47;;;;;;;15.58;100.00;90413.91;5031527;28;20487;-69
2023/06/16 06:04:21;;;;;;;1.92;1.35;;;;;;;15.59;100.00;90412.81;5031668;28;20037;-68
2023/06/16 06:06:46;;;;;;;2.72;2.10;;;;;;;15.84;100.00;90414.09;5031815;28;20025;-68
2023/06/16 06:09:12;;;;;;;1.90;1.80;;;;;;;15.83;100.00;90417.94;5031689;28;20025;-69
2023/06/16 06:11:37;;;;;;;2.15;2.05;;;;;;;15.65;100.00;90419.47;5034340;28;20034;-68
2023/06/16 06:14:03;;;;;;;3.42;2.25;;;;;;;15.68;100.00;90420.66;5035547;28;20038;-69
2023/06/16 06:16:30;;;;;;;2.28;1.58;;;;;;;15.72;100.00;90411.56;5036106;28;20116;-70
2023/06/16 06:18:56;;;;;;;2.40;2.08;;;;;;;15.88;100.00;90427.59;5035435;28;20468;-69
2023/06/16 06:21:21;;;;;;;3.20;1.77;;;;;;;16.08;100.00;90423.00;5035437;28;20034;-69
2023/06/16 06:23:47;;;;;;;2.88;1.42;;;;;;;16.21;100.00;90421.72;5035783;28;20041;-69
2023/06/16 06:26:13;;;;;;;2.35;1.95;;;;;;;16.37;100.00;90427.00;5035880;28;20044;-69
2023/06/16 06:28:38;;;;;;;1.80;1.70;;;;;;;16.39;100.00;90428.19;5035475;28;20529;-69
2023/06/16 06:31:04;;;;;;;2.42;2.22;;;;;;;16.21;100.00;90427.09;5035490;28;20034;-69
2023/06/16 06:33:29;;;;;;;1.77;1.67;;;;;;;16.17;100.00;90428.94;5035363;28;20026;-66
2023/06/16 06:35:55;;;;;;;4.10;2.05;;;;;;;16.50;100.00;90422.25;5035263;28;20163;-65
2023/06/16 06:38:20;;;;;;;2.80;1.38;;;;;;;16.43;100.00;90422.91;5035422;28;20022;-65
2023/06/16 06:40:45;;;;;;;2.13;1.92;;;;;;;16.31;100.00;90415.78;5035134;28;20553;-66
2023/06/16 06:43:11;;;;;;;3.00;2.15;;;;;;;16.51;100.00;90413.84;5035234;28;20025;-67
2023/06/16 06:45:37;;;;;;;3.60;2.60;;;;;;;16.61;100.00;90415.16;5035318;28;20040;-70
2023/06/16 06:48:02;;;;;;;1.50;1.40;;;;;;;16.49;100.00;90410.72;5034936;28;20022;-68
2023/06/16 06:50:28;;;;;;;2.45;2.25;;;;;;;16.52;100.00;90409.25;5035220;28;20479;-68
2023/06/16 06:52:53;;;;;;;1.40;1.40;;;;;;;16.64;100.00;90404.47;5035194;28;20059;-68
2023/06/16 06:55:19;;;;;;;3.25;2.25;;;;;;;16.54;100.00;90413.13;5035012;28;20029;-69
2023/06/16 06:57:44;;;;;;;2.20;2.10;;;;;;;16.56;100.00;90405.47;5034936;28;20025;-68
2023/06/16 07:00:10;;;;;;;3.58;1.95;;;;;;;16.41;100.00;90401.78;5035037;28;20164;-69
2023/06/16 07:02:36;;;;;;;3.22;2.00;;;;;;;16.66;100.00;90404.91;5034797;28;20083;-68
2023/06/16 07:05:02;;;;;;;2.38;2.28;;;;;;;16.86;100.00;90413.69;5034708;28;20226;-68
2023/06/16 07:07:28;;;;;;;3.38;1.83;;;;;;;16.88;100.00;90411.41;5034992;28;20041;-70
2023/06/16 07:09:53;;;;;;;5.30;2.90;;;;;;;16.85;100.00;90409.47;5034895;28;20033;-69
2023/06/16 07:12:18;;;;;;;3.05;2.85;;;;;;;16.76;100.00;90396.28;5034810;28;20163;-70
2023/06/16 07:14:47;;;;;;;3.35;3.13;;;;;;;16.92;100.00;90420.34;5034410;28;20041;-69
2023/06/16 07:17:13;;;;;;;3.50;2.60;;;;;;;16.68;100.00;90404.56;5034745;28;20558;-69
2023/06/16 07:19:38;;;;;;;3.65;3.38;;;;;;;16.83;100.00;90409.03;5034447;28;20137;-70
2023/06/16 07:22:05;;;;;;;2.30;2.10;;;;;;;16.76;100.00;90395.50;5033795;28;20021;-69
2023/06/16 07:24:30;;;;;;;3.92;2.45;;;;;;;16.41;100.00;90401.00;5034272;28;20367;-69
2023/06/16 07:26:56;;;;;;;2.70;2.50;;;;;;;16.76;100.00;90392.81;5034358;28;20026;-71
2023/06/16 07:29:22;;;;;;;3.15;2.53;;;;;;;16.83;100.00;90405.59;5034808;28;20033;-69
2023/06/16 07:31:47;;;;;;;2.47;2.25;;;;;;;16.79;100.00;90402.84;5034372;28;20039;-68
2023/06/16 07:34:13;;;;;;;3.33;3.13;;;;;;;16.95;100.00;90413.47;5034352;28;20033;-69
2023/06/16 07:36:38;;;;;;;2.25;1.92;;;;;;;16.62;100.00;90409.44;5034181;28;20466;-69
2023/06/16 07:39:04;;;;;;;3.20;2.63;;;;;;;16.33;100.00;90410.84;5034501;28;20022;-67
2023/06/16 07:41:29;;;;;;;3.42;2.15;;;;;;;16.37;100.00;90408.97;5034260;28;20029;-67
2023/06/16 07:43:55;;;;;;;1.77;1.67;;;;;;;16.83;100.00;90406.34;5035582;28;20032;-69
2023/06/16 07:46:20;;;;;;;3.45;2.65;;;;;;;17.10;100.00;90414.47;5052531;28;20120;-67
2023/06/16 07:48:46;;;;;;;2.25;2.05;;;;;;;17.12;100.00;90406.81;5053669;28;20059;-67
2023/06/16 07:51:11;;;;;;;3.97;2.47;;;;;;;17.43;100.00;90411.91;5052780;28;20025;-68
2023/06/16 07:53:39;;;;;;;2.95;2.17;;;;;;;17.27;100.00;90403.22;5053565;28;20048;-68
2023/06/16 07:56:06;;;;;;;2.63;1.83;;;;;;;17.27;100.00;90401.28;5053294;28;20028;-67
2023/06/16 07:58:32;;;;;;;2.97;2.65;;;;;;;17.13;100.00;90422.59;5053309;28;20112;-65
2023/06/16 08:00:57;;;;;;;4.20;3.75;;;;;;;17.16;100.00;90413.78;5053294;28;20086;-67
2023/06/16 08:03:23;;;;;;;3.10;1.80;;;;;;;17.23;100.00;90415.84;5053394;28;20037;-67
2023/06/16 08:05:48;;;;;;;2.67;2.53;;;;;;;17.21;100.00;90413.50;5052346;28;20025;-67
2023/06/16 08:08:14;;;;;;;11.10;3.50;;;;;;;17.04;100.00;90422.03;5052067;28;20033;-67
2023/06/16 08:10:40;;;;;;;5.15;4.03;;;;;;;17.27;100.00;90419.34;5052916;28;20045;-66
2023/06/16 08:13:06;;;;;;;3.90;3.38;;;;;;;17.46;100.00;90411.16;5052883;28;20059;-65
2023/06/16 08:15:31;;;;;;;2.45;1.98;;;;;;;17.51;100.00;90408.16;5051767;28;20117;-67
2023/06/16 08:17:56;;;;;;;5.75;3.50;;;;;;;17.45;100.00;90416.91;5052757;28;20450;-71
2023/06/16 08:20:22;;;;;;;4.55;2.90;;;;;;;17.41;100.00;90400.72;5067738;28;20025;-69
2023/06/16 08:22:48;;;;;;;2.95;2.70;;;;;;;17.29;100.00;90406.31;5035045;28;20502;-69
2023/06/16 08:25:13;;;;;;;2.35;2.15;;;;;;;17.26;100.00;90417.78;5053139;28;20536;-69
2023/06/16 08:27:39;;;;;;;5.38;2.25;;;;;;;17.45;100.00;90409.63;5051316;28;20538;-68
2023/06/16 08:30:06;;;;;;;3.95;3.58;;;;;;;16.88;100.00;90424.06;5053063;28;20021;-72
2023/06/16 08:32:32;;;;;;;12.77;4.85;;;;;;;16.51;100.00;90415.75;5051973;28;20456;-68
2023/06/16 08:34:57;;;;;;;4.90;4.07;;;;;;;16.74;100.00;90424.63;5067058;28;20399;-70
2023/06/16 08:37:23;;;;;;;4.07;3.72;;;;;;;16.20;100.00;90414.81;5052577;28;20032;-68
2023/06/16 08:39:48;;;;;;;10.75;3.10;;;;;;;16.10;100.00;90418.06;5052579;28;20029;-69
2023/06/16 08:42:17;;;;;;;3.60;3.40;;;;;;;16.25;100.00;90427.91;5052621;28;20409;-65
2023/06/16 08:44:43;;;;;;;9.82;4.60;;;;;;;16.47;100.00;90421.06;5052319;28;20032;-69
2023/06/16 08:47:09;;;;;;;14.30;6.25;;;;;;;16.64;100.00;90420.59;5051996;28;20025;-68
2023/06/16 08:49:35;;;;;;;7.97;4.85;;;;;;;16.60;100.00;90429.72;5051436;28;20021;-69
2023/06/16 08:52:03;;;;;;;5.07;4.65;;;;;;;16.54;100.00;90428.44;5052162;28;20087;-70
2023/06/16 08:54:35;;;;;;;6.88;4.22;;;;;;;16.50;100.00;90433.00;5044471;28;20024;-69
2023/06/16 08:57:03;;;;;;;4.03;3.63;;;;;;;16.66;100.00;90437.13;5042799;28;20090;-70
2023/06/16 08:59:30;;;;;;;4.13;3.72;;;;;;;16.86;100.00;90429.81;5041548;28;20175;-70
2023/06/16 09:01:58;;;;;;;6.40;5.10;;;;;;;17.18;100.00;90414.19;5040950;28;20016;-69
2023/06/16 09:04:24;;;;;;;7.78;2.92;;;;;;;17.55;100.00;90421.69;5042723;28;20033;-69
2023/06/16 09:06:56;;;;;;;10.63;6.43;;;;;;;17.49;100.00;90423.88;5041865;28;20514;-69
2023/06/16 09:09:22;;;;;;;3.03;2.72;;;;;;;17.50;100.00;90427.34;5040556;28;20024;-70
2023/06/16 09:12:08;;;;;;;3.03;2.83;;;;;;;17.14;100.00;90426.81;5041836;28;20029;-70
2023/06/16 09:14:36;;;;;;;6.05;3.47;;;;;;;17.13;100.00;90427.19;5039725;28;20033;-70
2023/06/16 09:17:05;;;;;;;4.63;3.20;;;;;;;17.21;100.00;90428.84;5050039;28;20033;-69
2023/06/16 09:19:41;;;;;;;8.52;5.35;;;;;;;17.08;100.00;90432.88;5051290;28;20422;-70
2023/06/16 09:22:09;;;;;;;5.55;5.07;;;;;;;17.23;100.00;90427.34;5046065;28;20032;-69
2023/06/16 09:24:35;;;;;;;10.30;5.10;;;;;;;17.21;100.00;90434.25;5052184;28;20029;-69
2023/06/16 09:27:01;;;;;;;5.05;4.50;;;;;;;17.30;100.00;90426.69;5052043;28;20033;-69
2023/06/16 09:29:28;;;;;;;6.60;4.75;;;;;;;17.57;100.00;90435.53;5052147;28;20406;-69
2023/06/16 09:32:05;;;;;;;6.32;3.33;;;;;;;17.15;100.00;90436.44;5051723;28;20024;-69
2023/06/16 09:34:35;;;;;;;4.95;4.25;;;;;;;17.08;100.00;90430.19;5052066;28;20494;-69
2023/06/16 09:37:05;;;;;;;9.48;5.63;;;;;;;17.12;100.00;90436.38;5051938;28;20486;-69
2023/06/16 09:39:30;;;;;;;5.95;4.55;;;;;;;16.92;100.00;90436.47;5051987;28;20056;-68
2023/06/16 09:41:56;;;;;;;5.75;3.25;;;;;;;16.81;100.00;90432.81;5051698;28;20091;-69
2023/06/16 09:44:24;;;;;;;7.53;4.50;;;;;;;16.93;100.00;90434.53;5051591;28;20529;-69
2023/06/16 09:46:50;;;;;;;6.45;4.95;;;;;;;17.08;100.00;90422.13;5051449;28;20028;-69
2023/06/16 09:49:26;;;;;;;3.47;3.17;;;;;;;17.32;100.00;90430.56;5051502;28;20483;-69
2023/06/16 09:51:56;;;;;;;4.97;4.28;;;;;;;18.06;100.00;90429.28;5051724;28;20033;-69
2023/06/16 09:54:23;;;;;;;3.42;2.88;;;;;;;18.91;100.00;90426.78;5051512;28;20028;-70
2023/06/16 09:56:49;;;;;;;3.72;3.42;;;;;;;18.78;100.00;90427.06;5052146;28;20426;-69
2023/06/16 09:59:15;;;;;;;6.68;4.70;;;;;;;19.04;100.00;90422.66;5050784;28;20542;-70
2023/06/16 10:01:45;;;;;;;4.25;3.38;;;;;;;19.70;100.00;90421.63;5040578;28;20117;-69
2023/06/16 10:04:13;;;;;;;3.53;3.22;;;;;;;20.12;100.00;90423.03;5039817;28;20018;-69
2023/06/16 10:07:02;;;;;;;3.72;3.35;;;;;;;20.43;100.00;90426.28;5041278;28;20071;-70
2023/06/16 10:09:35;;;;;;;9.77;4.43;;;;;;;21.07;100.00;90418.31;5032195;28;20034;-70
2023/06/16 10:12:02;;;;;;;4.63;4.20;;;;;;;21.16;100.00;90416.03;5031437;28;20026;-69
2023/06/16 10:14:33;;;;;;;3.00;2.67;;;;;;;21.57;100.00;90412.97;5030047;28;20049;-68
2023/06/16 10:17:00;;;;;;;9.02;4.07;;;;;;;22.59;100.00;90403.06;5031721;28;20022;-68
2023/06/16 10:19:28;;;;;;;2.83;2.55;;;;;;;23.72;100.00;90406.22;5031507;28;20490;-67
2023/06/16 10:21:55;;;;;;;2.85;2.70;;;;;;;23.25;100.00;90403.84;5031306;28;20030;-68
2023/06/16 10:24:21;;;;;;;4.80;4.35;;;;;;;23.58;100.00;90397.03;5031428;28;20044;-68
2023/06/16 10:26:49;;;;;;;5.55;2.67;;;;;;;22.86;100.00;90414.16;5031382;28;20029;-68
2023/06/16 10:29:16;;;;;;;5.57;3.70;;;;;;;22.50;100.00;90413.53;5031165;28;20053;-68
2023/06/16 10:31:45;;;;;;;3.38;2.88;;;;;;;21.48;100.00;90424.19;5031449;28;20025;-68
2023/06/16 10:34:23;;;;;;;4.60;3.58;;;;;;;20.87;100.00;90423.31;5030033;28;20087;-69
2023/06/16 10:36:51;;;;;;;5.70;3.95;;;;;;;20.01;100.00;90409.47;5031306;28;20100;-69
2023/06/16 10:39:16;;;;;;;6.68;4.50;;;;;;;19.90;100.00;90408.66;5037052;28;20045;-69
2023/06/16 10:41:48;;;;;;;5.53;4.20;;;;;;;19.26;100.00;90402.06;5040695;28;20024;-68
2023/06/16 10:44:32;;;;;;;3.60;2.97;;;;;;;18.95;100.00;90403.34;5041458;28;20095;-68
2023/06/16 10:47:12;;;;;;;9.00;6.05;;;;;;;19.52;100.00;90403.75;5038991;28;20021;-69
2023/06/16 10:49:51;;;;;;;4.18;3.55;;;;;;;19.95;100.00;90400.19;5041622;28;20040;-69
2023/06/16 10:52:18;;;;;;;4.90;4.28;;;;;;;20.01;100.00;90404.06;5041454;28;20021;-69
2023/06/16 10:54:45;;;;;;;6.28;3.70;;;;;;;19.43;100.00;90402.19;5040581;28;20022;-70
2023/06/16 10:57:12;;;;;;;2.60;2.40;;;;;;;19.65;100.00;90396.94;5039639;28;20025;-71
2023/06/16 11:00:13;;;;;;;3.95;3.60;;;;;;;19.18;100.00;90393.13;5043750;28;20442;-70
2023/06/16 11:02:53;;;;;;;4.25;2.53;;;;;;;19.04;100.00;90387.63;5047074;28;20026;-71
2023/06/16 11:05:22;;;;;;;3.67;3.38;;;;;;;18.99;100.00;90387.97;5042444;28;20109;-71
2023/06/16 11:07:50;;;;;;;5.05;4.25;;;;;;;19.12;100.00;90391.94;5034523;28;20259;-69
2023/06/16 11:10:18;;;;;;;3.20;2.85;;;;;;;19.18;100.00;90376.94;5069178;28;20594;-70
2023/06/16 11:12:47;;;;;;;3.38;3.05;;;;;;;19.45;100.00;90381.00;5054439;28;20116;-70
2023/06/16 11:15:13;;;;;;;6.05;4.57;;;;;;;19.03;100.00;90380.69;5054062;28;20049;-70
2023/06/16 11:17:42;;;;;;;3.50;2.90;;;;;;;18.74;100.00;90360.78;5041220;28;20060;-72
2023/06/16 11:20:08;;;;;;;6.10;3.95;;;;;;;19.12;100.00;90362.28;5034202;28;20033;-69
2023/06/16 11:22:35;;;;;;;6.53;4.60;;;;;;;19.86;100.00;90372.75;5033644;28;20029;-69
2023/06/16 11:25:03;;;;;;;4.50;3.78;;;;;;;20.07;100.00;90365.94;5034308;28;20526;-69